createdAt,value
2023-03-04T00:00:15.108Z,46.53
2023-03-04T00:02:42.598Z,49.07
2023-03-04T00:05:11.274Z,45.60
2023-03-04T00:07:38.590Z,46.70
2023-03-04T00:10:06.985Z,45.90
2023-03-04T00:12:34.403Z,45.30
2023-03-04T00:15:01.848Z,46.40
2023-03-04T00:17:31.414Z,43.23
2023-03-04T00:19:58.976Z,44.27
2023-03-04T00:22:26.216Z,45.17
2023-03-04T00:24:53.388Z,45.77
2023-03-04T00:27:20.537Z,43.93
2023-03-04T00:29:47.837Z,43.97
2023-03-04T00:32:16.252Z,46.00
2023-03-04T00:34:43.880Z,44.13
2023-03-04T00:37:11.062Z,43.67
2023-03-04T00:39:38.261Z,45.80
2023-03-04T00:42:05.473Z,43.93
2023-03-04T00:44:32.939Z,45.73
2023-03-04T00:47:00.284Z,45.07
2023-03-04T00:49:27.552Z,43.67
2023-03-04T00:51:54.754Z,45.50
2023-03-04T00:54:21.980Z,45.53
2023-03-04T00:56:49.386Z,44.77
2023-03-04T00:59:16.627Z,45.10
2023-03-04T01:01:44.176Z,45.40
2023-03-04T01:04:11.506Z,46.53
2023-03-04T01:06:39.001Z,45.53
2023-03-04T01:09:06.535Z,44.73
2023-03-04T01:11:34.128Z,44.10
2023-03-04T01:14:01.823Z,42.13
2023-03-04T01:16:29.070Z,43.13
2023-03-04T01:18:56.290Z,44.53
2023-03-04T01:21:23.741Z,44.10
2023-03-04T01:23:51.371Z,45.63
2023-03-04T01:26:19.295Z,42.57
2023-03-04T01:28:47.885Z,43.90
2023-03-04T01:31:15.160Z,45.60
2023-03-04T01:33:42.497Z,45.30
2023-03-04T01:36:11.541Z,44.77
2023-03-04T01:38:38.746Z,44.87
2023-03-04T01:41:07.624Z,45.70
2023-03-04T01:43:36.758Z,45.63
2023-03-04T01:46:04.915Z,46.10
2023-03-04T01:48:37.317Z,44.40
2023-03-04T01:51:06.916Z,45.50
2023-03-04T01:53:34.369Z,46.83
2023-03-04T01:56:14.629Z,45.10
2023-03-04T01:58:42.283Z,41.53
2023-03-04T02:01:12.673Z,45.00
2023-03-04T02:03:40.445Z,45.90
2023-03-04T02:06:07.928Z,45.40
2023-03-04T02:08:35.301Z,42.87
2023-03-04T02:11:02.545Z,43.97
2023-03-04T02:13:30.017Z,42.40
2023-03-04T02:15:57.550Z,45.03
2023-03-04T02:18:25.213Z,42.60
2023-03-04T02:21:19.835Z,43.27
2023-03-04T02:23:57.327Z,42.23
2023-03-04T02:26:27.984Z,41.90
2023-03-04T02:28:58.367Z,43.27
2023-03-04T02:31:31.735Z,39.87
2023-03-04T02:34:02.384Z,40.90
2023-03-04T02:36:30.084Z,42.37
2023-03-04T02:39:04.389Z,39.83
2023-03-04T02:41:32.360Z,41.83
2023-03-04T02:44:00.493Z,99.40
2023-03-04T02:46:28.428Z,51.87
2023-03-04T02:48:56.107Z,43.77
2023-03-04T02:51:23.577Z,39.93
2023-03-04T02:53:50.965Z,41.93
2023-03-04T02:56:18.493Z,39.70
2023-03-04T02:58:45.910Z,39.43
2023-03-04T03:01:13.903Z,39.63
2023-03-04T03:03:42.163Z,38.67
2023-03-04T03:06:11.140Z,38.53
2023-03-04T03:08:38.793Z,42.00
2023-03-04T03:11:07.712Z,39.43
2023-03-04T03:13:36.802Z,39.83
2023-03-04T03:16:05.064Z,39.40
2023-03-04T03:18:32.504Z,38.60
2023-03-04T03:20:59.970Z,37.73
2023-03-04T03:23:27.469Z,39.50
2023-03-04T03:25:54.720Z,39.17
2023-03-04T03:28:22.016Z,40.23
2023-03-04T03:30:49.320Z,41.03
2023-03-04T03:33:18.180Z,40.93
2023-03-04T03:35:45.784Z,41.90
2023-03-04T03:38:13.146Z,39.43
2023-03-04T03:40:40.451Z,39.30
2023-03-04T03:43:07.899Z,41.93
2023-03-04T03:45:35.195Z,43.10
2023-03-04T03:48:02.566Z,40.47
2023-03-04T03:50:29.813Z,40.20
2023-03-04T03:52:57.447Z,40.97
2023-03-04T03:55:24.646Z,41.03
2023-03-04T03:57:51.777Z,39.87
2023-03-04T04:00:19.409Z,41.00
2023-03-04T04:02:46.742Z,40.33
2023-03-04T04:05:14.583Z,41.23
2023-03-04T04:07:42.081Z,40.23
2023-03-04T04:10:11.216Z,39.60
2023-03-04T04:12:38.733Z,41.00
2023-03-04T04:15:06.769Z,40.60
2023-03-04T04:17:35.002Z,42.30
2023-03-04T04:20:02.249Z,43.17
2023-03-04T04:22:29.525Z,41.87
2023-03-04T04:24:56.734Z,42.30
2023-03-04T04:27:23.993Z,41.33
2023-03-04T04:29:51.468Z,40.83
2023-03-04T04:32:18.749Z,40.90
2023-03-04T04:34:45.998Z,42.93
2023-03-04T04:37:13.421Z,40.53
2023-03-04T04:39:40.656Z,41.13
2023-03-04T04:42:10.654Z,41.50
2023-03-04T04:44:38.865Z,39.77
2023-03-04T04:47:07.402Z,40.87
2023-03-04T04:49:34.879Z,42.50
2023-03-04T04:52:02.537Z,41.53
2023-03-04T04:54:30.109Z,40.43
2023-03-04T04:56:57.388Z,40.93
2023-03-04T04:59:25.951Z,42.83
2023-03-04T05:01:53.351Z,38.80
2023-03-04T05:04:20.579Z,39.60
2023-03-04T05:06:48.031Z,39.20
2023-03-04T05:09:15.349Z,37.70
2023-03-04T05:11:42.782Z,40.77
2023-03-04T05:14:10.115Z,36.40
2023-03-04T05:16:37.541Z,36.93
2023-03-04T05:19:04.797Z,37.30
2023-03-04T05:21:32.221Z,37.63
2023-03-04T05:23:59.486Z,36.30
2023-03-04T05:26:26.772Z,37.20
2023-03-04T05:28:54.198Z,36.93
2023-03-04T05:31:21.666Z,37.67
2023-03-04T05:33:49.122Z,37.13
2023-03-04T05:36:16.802Z,37.60
2023-03-04T05:38:44.386Z,34.73
2023-03-04T05:41:12.328Z,36.37
2023-03-04T05:43:42.711Z,35.10
2023-03-04T05:46:16.134Z,34.77
2023-03-04T05:48:45.004Z,35.70
2023-03-04T05:51:12.423Z,36.03
2023-03-04T05:53:41.599Z,33.60
2023-03-04T05:56:13.654Z,34.57
2023-03-04T05:58:41.206Z,33.73
2023-03-04T06:01:08.879Z,35.00
2023-03-04T06:03:36.593Z,35.63
2023-03-04T06:06:04.362Z,33.43
2023-03-04T06:08:32.139Z,36.37
2023-03-04T06:10:59.514Z,35.77
2023-03-04T06:13:28.217Z,33.17
2023-03-04T06:15:57.922Z,34.83
2023-03-04T06:18:26.872Z,33.87
2023-03-04T06:20:59.281Z,33.57
2023-03-04T06:23:27.897Z,35.03
2023-03-04T06:25:57.306Z,35.40
2023-03-04T06:28:25.764Z,35.63
2023-03-04T06:30:53.695Z,34.50
2023-03-04T06:33:21.452Z,34.80
2023-03-04T06:35:49.147Z,33.00
2023-03-04T06:38:16.662Z,33.93
2023-03-04T06:40:46.008Z,36.53
2023-03-04T06:43:13.190Z,35.03
2023-03-04T06:45:40.626Z,32.60
2023-03-04T06:48:07.831Z,32.77
2023-03-04T06:50:35.058Z,34.37
2023-03-04T06:53:02.249Z,32.07
2023-03-04T06:55:29.431Z,35.10
2023-03-04T06:57:56.671Z,32.67
2023-03-04T07:00:24.511Z,33.90
2023-03-04T07:02:54.087Z,32.57
2023-03-04T07:05:22.255Z,33.70
2023-03-04T07:07:49.907Z,33.70
2023-03-04T07:10:18.887Z,32.10
2023-03-04T07:12:46.413Z,34.53
2023-03-04T07:15:14.051Z,33.33
2023-03-04T07:17:41.476Z,33.37
2023-03-04T07:20:09.655Z,34.77
2023-03-04T07:22:37.116Z,34.40
2023-03-04T07:25:05.745Z,33.43
2023-03-04T07:27:33.074Z,32.23
2023-03-04T07:30:00.328Z,34.40
2023-03-04T07:32:27.764Z,32.90
2023-03-04T07:34:55.248Z,32.30
2023-03-04T07:37:22.847Z,33.17
2023-03-04T07:39:50.118Z,32.30
2023-03-04T07:42:17.379Z,33.40
2023-03-04T07:44:53.485Z,34.07
2023-03-04T07:47:20.924Z,32.67
2023-03-04T07:49:48.446Z,33.80
2023-03-04T07:52:15.878Z,34.37
2023-03-04T07:54:43.137Z,34.40
2023-03-04T07:57:10.560Z,34.17
2023-03-04T07:59:38.015Z,33.27
2023-03-04T08:02:05.239Z,34.40
2023-03-04T08:04:32.699Z,33.90
2023-03-04T08:07:00.136Z,33.60
2023-03-04T08:09:27.538Z,33.77
2023-03-04T08:11:54.737Z,34.87
2023-03-04T08:14:21.993Z,35.77
2023-03-04T08:16:49.451Z,34.20
2023-03-04T08:19:16.838Z,33.43
2023-03-04T08:21:44.315Z,34.83
2023-03-04T08:24:12.019Z,35.00
2023-03-04T08:26:43.044Z,35.03
2023-03-04T08:29:14.439Z,34.87
2023-03-04T08:31:42.258Z,35.03
2023-03-04T08:34:10.642Z,35.07
2023-03-04T08:36:37.980Z,36.20
2023-03-04T08:39:05.544Z,35.97
2023-03-04T08:41:33.104Z,34.73
2023-03-04T08:44:01.477Z,34.20
2023-03-04T08:46:29.433Z,31.80
2023-03-04T08:48:57.434Z,33.43
2023-03-04T08:51:25.198Z,35.00
2023-03-04T08:53:52.377Z,33.50
2023-03-04T08:56:19.629Z,33.97
2023-03-04T08:58:46.967Z,32.93
2023-03-04T09:01:15.453Z,32.07
2023-03-04T09:03:42.966Z,33.27
2023-03-04T09:06:17.102Z,34.10
2023-03-04T09:08:45.443Z,32.50
2023-03-04T09:11:12.898Z,32.97
2023-03-04T09:13:40.615Z,31.17
2023-03-04T09:16:15.500Z,29.97
2023-03-04T09:18:43.709Z,32.13
2023-03-04T09:21:11.427Z,30.80
2023-03-04T09:23:39.394Z,31.33
2023-03-04T09:26:26.566Z,30.53
2023-03-04T09:28:56.103Z,31.40
2023-03-04T09:31:24.343Z,31.27
2023-03-04T09:33:52.565Z,30.53
2023-03-04T09:36:20.221Z,31.37
2023-03-04T09:38:47.452Z,29.80
2023-03-04T09:41:48.766Z,29.97
2023-03-04T09:44:45.692Z,28.83
2023-03-04T09:47:16.417Z,28.27
2023-03-04T09:49:58.894Z,27.23
2023-03-04T09:52:29.022Z,24.33
2023-03-04T09:55:15.149Z,26.63
2023-03-04T09:58:21.288Z,26.77
2023-03-04T10:01:28.973Z,26.40
2023-03-04T10:04:02.770Z,27.27
2023-03-04T10:06:31.858Z,25.23
2023-03-04T10:09:07.572Z,24.30
2023-03-04T10:11:43.647Z,25.87
2023-03-04T10:14:23.098Z,24.33
2023-03-04T10:17:18.043Z,25.57
2023-03-04T10:20:09.751Z,25.10
2023-03-04T10:22:46.353Z,25.50
2023-03-04T10:25:27.623Z,24.73
2023-03-04T10:28:07.211Z,25.00
2023-03-04T10:30:48.460Z,25.93
2023-03-04T10:33:22.132Z,27.33
2023-03-04T10:36:23.250Z,25.73
2023-03-04T10:38:55.014Z,25.47
2023-03-04T10:41:26.173Z,28.27
2023-03-04T10:44:08.624Z,26.20
2023-03-04T10:46:44.184Z,26.13
2023-03-04T10:49:14.627Z,27.43
2023-03-04T10:51:43.584Z,26.50
2023-03-04T10:54:48.758Z,27.33
2023-03-04T10:57:28.934Z,28.63
2023-03-04T10:59:57.139Z,28.60
2023-03-04T11:02:28.267Z,28.07
2023-03-04T11:05:21.378Z,28.83
2023-03-04T11:07:58.368Z,27.67
2023-03-04T11:10:40.641Z,28.47
2023-03-04T11:13:18.432Z,27.57
2023-03-04T11:15:58.182Z,27.90
2023-03-04T11:18:30.590Z,24.83
2023-03-04T11:20:58.516Z,24.57
2023-03-04T11:23:33.958Z,25.57
2023-03-04T11:26:26.513Z,25.70
2023-03-04T11:28:56.467Z,25.30
2023-03-04T11:31:46.661Z,24.83
2023-03-04T11:34:27.139Z,25.97
2023-03-04T11:37:30.564Z,27.30
2023-03-04T11:40:07.190Z,26.53
2023-03-04T11:42:51.527Z,26.30
2023-03-04T11:45:33.847Z,27.23
2023-03-04T11:48:21.436Z,26.27
2023-03-04T11:51:12.879Z,26.03
2023-03-04T11:54:01.177Z,28.00
2023-03-04T11:56:37.553Z,28.20
2023-03-04T11:59:34.585Z,28.97
2023-03-04T12:02:10.988Z,28.77
2023-03-04T12:04:56.748Z,27.97
2023-03-04T12:07:51.361Z,27.70
2023-03-04T12:10:39.582Z,29.67
2023-03-04T12:13:12.865Z,27.80
2023-03-04T12:16:19.625Z,28.97
2023-03-04T12:19:14.515Z,28.00
2023-03-04T12:21:42.462Z,28.97
2023-03-04T12:25:07.142Z,29.07
2023-03-04T12:27:58.001Z,28.20
2023-03-04T12:30:43.557Z,27.83
2023-03-04T12:33:35.175Z,27.93
2023-03-04T12:36:11.320Z,28.43
2023-03-04T12:38:56.581Z,27.30
2023-03-04T12:41:29.660Z,28.10
2023-03-04T12:44:29.013Z,27.77
2023-03-04T12:47:23.855Z,27.10
2023-03-04T12:50:28.750Z,28.13
2023-03-04T12:53:17.727Z,26.27
2023-03-04T12:55:47.062Z,26.40
2023-03-04T12:58:18.640Z,26.73
2023-03-04T13:01:12.693Z,26.93
2023-03-04T13:04:30.472Z,26.33
2023-03-04T13:07:13.049Z,26.30
2023-03-04T13:09:52.749Z,24.97
2023-03-04T13:12:23.423Z,25.27
2023-03-04T13:15:08.727Z,24.67
2023-03-04T13:17:43.616Z,25.93
2023-03-04T13:20:20.865Z,24.33
2023-03-04T13:22:59.455Z,22.33
2023-03-04T13:25:32.546Z,21.27
2023-03-04T13:28:02.829Z,21.47
2023-03-04T13:30:33.345Z,21.27
2023-03-04T13:33:13.448Z,22.47
2023-03-04T13:35:47.599Z,20.90
2023-03-04T13:38:25.217Z,21.83
2023-03-04T13:41:15.920Z,20.73
2023-03-04T13:43:47.414Z,22.23
2023-03-04T13:46:21.024Z,22.70
2023-03-04T13:48:51.503Z,22.07
2023-03-04T13:51:44.082Z,22.40
2023-03-04T13:54:23.916Z,22.80
2023-03-04T13:57:00.222Z,22.63
2023-03-04T13:59:28.963Z,22.47
2023-03-04T14:02:00.889Z,21.83
2023-03-04T14:04:38.573Z,22.80
2023-03-04T14:07:29.203Z,23.50
2023-03-04T14:09:58.122Z,21.47
2023-03-04T14:12:28.378Z,22.57
2023-03-04T14:14:59.177Z,23.20
2023-03-04T14:17:36.857Z,22.30
2023-03-04T14:20:25.122Z,22.33
2023-03-04T14:22:53.302Z,20.93
2023-03-04T14:25:35.441Z,22.03
2023-03-04T14:28:10.470Z,22.50
2023-03-04T14:30:42.694Z,21.40
2023-03-04T14:33:25.520Z,22.80
2023-03-04T14:35:56.371Z,20.87
2023-03-04T14:38:35.556Z,20.87
2023-03-04T14:41:10.827Z,20.60
2023-03-04T14:43:46.294Z,20.77
2023-03-04T14:46:18.819Z,19.97
2023-03-04T14:48:50.985Z,20.27
2023-03-04T14:51:36.795Z,20.70
2023-03-04T14:54:04.969Z,19.17
2023-03-04T14:56:35.152Z,19.07
2023-03-04T14:59:02.634Z,18.53
2023-03-04T15:01:29.853Z,19.10
2023-03-04T15:03:59.976Z,18.20
2023-03-04T15:06:30.591Z,17.43
2023-03-04T15:09:07.075Z,17.57
2023-03-04T15:11:49.338Z,19.07
2023-03-04T15:14:44.498Z,17.03
2023-03-04T15:17:38.357Z,18.10
2023-03-04T15:20:08.707Z,16.93
2023-03-04T15:22:49.142Z,16.97
2023-03-04T15:25:20.114Z,17.63
2023-03-04T15:27:49.655Z,18.17
2023-03-04T15:30:18.530Z,16.87
2023-03-04T15:32:45.830Z,17.17
2023-03-04T15:35:13.966Z,18.23
2023-03-04T15:37:41.905Z,17.20
2023-03-04T15:40:38.912Z,16.83
2023-03-04T15:43:06.926Z,15.63
2023-03-04T15:45:39.056Z,17.03
2023-03-04T15:48:08.912Z,17.03
2023-03-04T15:50:44.000Z,17.37
2023-03-04T15:53:22.103Z,17.17
2023-03-04T15:55:49.540Z,16.87
2023-03-04T15:58:16.906Z,17.63
2023-03-04T16:00:44.106Z,17.83
2023-03-04T16:03:17.151Z,17.43
2023-03-04T16:05:46.966Z,17.80
2023-03-04T16:08:22.353Z,17.87
2023-03-04T16:10:50.840Z,18.33
2023-03-04T16:13:22.986Z,17.83
2023-03-04T16:15:50.439Z,18.40
2023-03-04T16:18:18.109Z,17.00
2023-03-04T16:20:48.732Z,17.53
2023-03-04T16:23:23.975Z,18.60
2023-03-04T16:25:56.262Z,17.77
2023-03-04T16:28:23.551Z,17.00
2023-03-04T16:30:50.937Z,16.73
2023-03-04T16:33:18.232Z,17.30
2023-03-04T16:35:46.125Z,17.33
2023-03-04T16:38:25.873Z,17.20
2023-03-04T16:40:55.071Z,16.63
2023-03-04T16:43:22.774Z,17.70
2023-03-04T16:45:50.187Z,19.30
2023-03-04T16:48:17.652Z,17.53
2023-03-04T16:50:45.032Z,16.87
2023-03-04T16:53:24.784Z,17.70
2023-03-04T16:55:52.009Z,18.37
2023-03-04T16:58:19.162Z,17.50
2023-03-04T17:00:46.480Z,17.63
2023-03-04T17:03:13.627Z,16.93
2023-03-04T17:05:41.024Z,18.03
2023-03-04T17:08:08.206Z,17.63
2023-03-04T17:10:35.547Z,17.57
2023-03-04T17:13:02.954Z,18.53
2023-03-04T17:15:30.140Z,17.67
2023-03-04T17:17:57.554Z,18.43
2023-03-04T17:20:24.750Z,18.20
2023-03-04T17:22:53.068Z,19.33
2023-03-04T17:25:20.386Z,18.93
2023-03-04T17:27:47.622Z,18.77
2023-03-04T17:30:14.990Z,18.00
2023-03-04T17:32:42.211Z,18.63
2023-03-04T17:35:10.498Z,18.33
2023-03-04T17:37:37.989Z,18.50
2023-03-04T17:40:08.515Z,19.07
2023-03-04T17:42:35.765Z,19.63
2023-03-04T17:45:03.160Z,19.03
2023-03-04T17:47:30.343Z,19.27
2023-03-04T17:49:57.534Z,19.73
2023-03-04T17:52:25.040Z,19.80
2023-03-04T17:54:52.242Z,20.27
2023-03-04T17:57:19.524Z,19.00
2023-03-04T17:59:47.091Z,20.20
2023-03-04T18:02:15.836Z,21.20
2023-03-04T18:04:45.892Z,20.90
2023-03-04T18:07:13.159Z,20.63
2023-03-04T18:09:40.414Z,20.77
2023-03-04T18:12:07.852Z,19.60
2023-03-04T18:14:35.003Z,24.97
2023-03-04T18:17:03.461Z,19.87
2023-03-04T18:19:30.730Z,21.30
2023-03-04T18:21:58.214Z,21.00
2023-03-04T18:24:25.567Z,21.60
2023-03-04T18:26:52.777Z,20.60
2023-03-04T18:29:19.982Z,21.07
2023-03-04T18:31:47.219Z,21.40
2023-03-04T18:34:14.504Z,19.80
2023-03-04T18:36:41.756Z,20.77
2023-03-04T18:39:09.366Z,19.13
2023-03-04T18:41:36.563Z,20.60
2023-03-04T18:44:05.010Z,21.53
2023-03-04T18:46:44.922Z,21.13
2023-03-04T18:49:14.329Z,21.30
2023-03-04T18:51:41.753Z,20.70
2023-03-04T18:54:09.169Z,19.17
2023-03-04T18:56:47.788Z,21.77
2023-03-04T18:59:22.989Z,19.90
2023-03-04T19:01:52.159Z,19.57
2023-03-04T19:04:20.965Z,21.00
2023-03-04T19:06:48.251Z,19.93
2023-03-04T19:09:15.567Z,20.37
2023-03-04T19:11:42.823Z,20.90
2023-03-04T19:14:11.641Z,20.77
2023-03-04T19:16:39.984Z,21.40
2023-03-04T19:19:07.371Z,26.73
2023-03-04T19:21:38.183Z,20.60
2023-03-04T19:24:05.891Z,20.30
2023-03-04T19:26:33.470Z,22.23
2023-03-04T19:29:00.681Z,21.17
2023-03-04T19:31:28.259Z,21.37
2023-03-04T19:33:55.466Z,22.87
2023-03-04T19:36:22.797Z,22.07
2023-03-04T19:38:50.168Z,23.07
2023-03-04T19:41:18.042Z,21.53
2023-03-04T19:43:45.971Z,21.47
2023-03-04T19:46:14.076Z,23.30
2023-03-04T19:48:41.675Z,23.50
2023-03-04T19:51:29.366Z,21.93
2023-03-04T19:53:56.572Z,21.70
2023-03-04T19:56:24.264Z,21.27
2023-03-04T19:58:56.061Z,21.93
2023-03-04T20:01:28.264Z,22.00
2023-03-04T20:04:01.840Z,20.80
2023-03-04T20:06:30.394Z,21.90
2023-03-04T20:09:01.289Z,23.00
2023-03-04T20:11:30.457Z,21.93
2023-03-04T20:13:58.574Z,22.17
2023-03-04T20:16:26.417Z,22.53
2023-03-04T20:18:54.232Z,22.03
2023-03-04T20:21:21.418Z,21.47
2023-03-04T20:23:48.770Z,21.80
2023-03-04T20:26:16.209Z,22.93
2023-03-04T20:28:50.955Z,23.07
2023-03-04T20:31:25.708Z,22.80
2023-03-04T20:33:54.412Z,22.60
2023-03-04T20:36:23.280Z,22.37
2023-03-04T20:38:57.930Z,21.90
2023-03-04T20:41:28.897Z,22.00
2023-03-04T20:43:56.332Z,22.87
2023-03-04T20:46:39.017Z,22.97
2023-03-04T20:49:28.287Z,22.50
2023-03-04T20:52:02.630Z,22.90
2023-03-04T20:54:30.252Z,23.20
2023-03-04T20:56:57.867Z,22.63
2023-03-04T20:59:25.037Z,23.17
2023-03-04T21:01:52.916Z,22.47
2023-03-04T21:04:20.899Z,21.77
2023-03-04T21:06:48.349Z,21.43
2023-03-04T21:09:17.565Z,23.27
2023-03-04T21:11:45.619Z,22.57
2023-03-04T21:14:22.527Z,24.10
2023-03-04T21:16:52.067Z,24.00
2023-03-04T21:19:23.146Z,22.17
2023-03-04T21:21:51.650Z,22.70
2023-03-04T21:24:22.873Z,22.40
2023-03-04T21:26:50.764Z,22.13
2023-03-04T21:29:20.566Z,23.53
2023-03-04T21:31:52.816Z,22.13
2023-03-04T21:34:34.921Z,22.43
2023-03-04T21:37:04.063Z,21.80
2023-03-04T21:39:32.088Z,22.33
2023-03-04T21:42:00.536Z,21.13
2023-03-04T21:44:38.549Z,22.27
2023-03-04T21:47:12.594Z,23.57
2023-03-04T21:49:40.205Z,23.03
2023-03-04T21:52:07.494Z,22.90
2023-03-04T21:54:34.938Z,24.43
2023-03-04T21:57:02.142Z,23.17
2023-03-04T21:59:29.702Z,23.37
2023-03-04T22:01:57.201Z,24.00
2023-03-04T22:04:24.427Z,23.93
2023-03-04T22:06:51.823Z,24.37
2023-03-04T22:09:19.043Z,24.67
2023-03-04T22:11:46.361Z,24.83
2023-03-04T22:14:13.581Z,25.57
2023-03-04T22:16:54.092Z,24.33
2023-03-04T22:19:30.326Z,25.70
2023-03-04T22:21:57.484Z,24.87
2023-03-04T22:24:26.093Z,26.00
2023-03-04T22:26:53.463Z,26.73
2023-03-04T22:29:20.713Z,26.20
2023-03-04T22:31:48.037Z,26.57
2023-03-04T22:34:16.073Z,26.90
2023-03-04T22:36:45.422Z,26.80
2023-03-04T22:39:15.288Z,27.23
2023-03-04T22:41:42.698Z,27.13
2023-03-04T22:44:09.909Z,25.70
2023-03-04T22:46:39.016Z,25.37
2023-03-04T22:49:09.859Z,26.00
2023-03-04T22:51:38.383Z,25.87
2023-03-04T22:54:05.624Z,26.17
2023-03-04T22:56:33.517Z,27.03
2023-03-04T22:59:00.721Z,26.57
2023-03-04T23:01:27.927Z,25.60
2023-03-04T23:03:55.206Z,26.57
2023-03-04T23:06:25.162Z,26.30
2023-03-04T23:08:52.951Z,26.57
2023-03-04T23:11:23.635Z,26.33
2023-03-04T23:13:51.303Z,26.00
2023-03-04T23:16:19.553Z,26.33
2023-03-04T23:18:48.321Z,27.67
2023-03-04T23:21:19.426Z,27.67
2023-03-04T23:23:47.069Z,27.23
2023-03-04T23:26:18.887Z,27.03
2023-03-04T23:28:46.461Z,26.50
2023-03-04T23:31:17.179Z,26.87
2023-03-04T23:33:45.969Z,27.80
2023-03-04T23:36:15.553Z,27.43
2023-03-04T23:38:44.561Z,26.83
2023-03-04T23:41:17.103Z,27.17
2023-03-04T23:43:44.768Z,25.27
2023-03-04T23:46:12.551Z,27.90
2023-03-04T23:48:43.340Z,27.80
2023-03-04T23:51:11.157Z,27.17
2023-03-04T23:53:41.334Z,26.50
2023-03-04T23:56:10.563Z,26.90
2023-03-04T23:58:38.459Z,25.47
